sensor_id;sensor_type;location;lat;lon;timestamp;P1;durP1;ratioP1;P2;durP2;ratioP2
48765;SDS011;65794;51.836;5.002;2023-05-07T00:01:18;33.92;;;23.33;;
48765;SDS011;65794;51.836;5.002;2023-05-07T00:03:56;39.78;;;24.90;;
48765;SDS011;65794;51.836;5.002;2023-05-07T00:06:23;33.13;;;23.00;;
48765;SDS011;65794;51.836;5.002;2023-05-07T00:08:50;35.78;;;22.80;;
48765;SDS011;65794;51.836;5.002;2023-05-07T00:11:17;34.60;;;22.27;;
48765;SDS011;65794;51.836;5.002;2023-05-07T00:13:48;31.10;;;22.40;;
48765;SDS011;65794;51.836;5.002;2023-05-07T00:16:36;33.05;;;21.60;;
48765;SDS011;65794;51.836;5.002;2023-05-07T00:19:02;31.52;;;20.13;;
48765;SDS011;65794;51.836;5.002;2023-05-07T00:21:29;29.60;;;20.58;;
48765;SDS011;65794;51.836;5.002;2023-05-07T00:23:57;34.67;;;20.75;;
48765;SDS011;65794;51.836;5.002;2023-05-07T00:26:24;28.25;;;19.88;;
48765;SDS011;65794;51.836;5.002;2023-05-07T00:28:51;33.75;;;20.27;;
48765;SDS011;65794;51.836;5.002;2023-05-07T00:31:18;27.65;;;20.17;;
48765;SDS011;65794;51.836;5.002;2023-05-07T00:33:58;27.33;;;19.00;;
48765;SDS011;65794;51.836;5.002;2023-05-07T00:36:25;27.25;;;17.92;;
48765;SDS011;65794;51.836;5.002;2023-05-07T00:38:53;24.65;;;17.17;;
48765;SDS011;65794;51.836;5.002;2023-05-07T00:41:24;25.92;;;17.77;;
48765;SDS011;65794;51.836;5.002;2023-05-07T00:43:51;25.38;;;16.52;;
48765;SDS011;65794;51.836;5.002;2023-05-07T00:48:57;25.05;;;16.75;;
48765;SDS011;65794;51.836;5.002;2023-05-07T00:51:24;22.38;;;16.63;;
48765;SDS011;65794;51.836;5.002;2023-05-07T00:53:53;24.92;;;16.83;;
48765;SDS011;65794;51.836;5.002;2023-05-07T00:56:29;19.25;;;13.43;;
48765;SDS011;65794;51.836;5.002;2023-05-07T00:58:57;20.95;;;12.85;;
48765;SDS011;65794;51.836;5.002;2023-05-07T01:01:31;17.77;;;12.25;;
48765;SDS011;65794;51.836;5.002;2023-05-07T01:03:58;17.40;;;11.70;;
48765;SDS011;65794;51.836;5.002;2023-05-07T01:06:25;17.98;;;11.98;;
48765;SDS011;65794;51.836;5.002;2023-05-07T01:08:54;15.32;;;10.40;;
48765;SDS011;65794;51.836;5.002;2023-05-07T01:11:23;14.77;;;10.32;;
48765;SDS011;65794;51.836;5.002;2023-05-07T01:13:52;14.60;;;9.68;;
48765;SDS011;65794;51.836;5.002;2023-05-07T01:16:20;19.80;;;11.07;;
48765;SDS011;65794;51.836;5.002;2023-05-07T01:19:01;15.43;;;10.60;;
48765;SDS011;65794;51.836;5.002;2023-05-07T01:21:32;20.58;;;10.75;;
48765;SDS011;65794;51.836;5.002;2023-05-07T01:23:59;16.58;;;10.60;;
48765;SDS011;65794;51.836;5.002;2023-05-07T01:26:27;17.55;;;9.48;;
48765;SDS011;65794;51.836;5.002;2023-05-07T01:28:54;13.15;;;9.60;;
48765;SDS011;65794;51.836;5.002;2023-05-07T01:31:32;14.30;;;10.15;;
48765;SDS011;65794;51.836;5.002;2023-05-07T01:33:59;16.10;;;11.23;;
48765;SDS011;65794;51.836;5.002;2023-05-07T01:36:27;16.77;;;11.43;;
48765;SDS011;65794;51.836;5.002;2023-05-07T01:38:55;20.30;;;10.40;;
48765;SDS011;65794;51.836;5.002;2023-05-07T01:41:24;17.52;;;10.95;;
48765;SDS011;65794;51.836;5.002;2023-05-07T01:43:51;17.40;;;11.68;;
48765;SDS011;65794;51.836;5.002;2023-05-07T01:46:19;19.45;;;11.38;;
48765;SDS011;65794;51.836;5.002;2023-05-07T01:49:05;17.88;;;10.73;;
48765;SDS011;65794;51.836;5.002;2023-05-07T01:51:32;17.45;;;10.82;;
48765;SDS011;65794;51.836;5.002;2023-05-07T01:54:00;14.77;;;9.70;;
48765;SDS011;65794;51.836;5.002;2023-05-07T01:56:28;16.00;;;9.65;;
48765;SDS011;65794;51.836;5.002;2023-05-07T01:58:55;15.65;;;10.52;;
48765;SDS011;65794;51.836;5.002;2023-05-07T02:01:31;15.57;;;9.63;;
48765;SDS011;65794;51.836;5.002;2023-05-07T02:03:58;16.50;;;10.55;;
48765;SDS011;65794;51.836;5.002;2023-05-07T02:06:28;15.60;;;10.85;;
48765;SDS011;65794;51.836;5.002;2023-05-07T02:09:00;15.18;;;10.45;;
48765;SDS011;65794;51.836;5.002;2023-05-07T02:11:27;17.35;;;10.93;;
48765;SDS011;65794;51.836;5.002;2023-05-07T02:13:54;16.20;;;10.98;;
48765;SDS011;65794;51.836;5.002;2023-05-07T02:16:30;15.32;;;10.50;;
48765;SDS011;65794;51.836;5.002;2023-05-07T02:18:57;18.40;;;10.23;;
48765;SDS011;65794;51.836;5.002;2023-05-07T02:21:25;14.45;;;10.07;;
48765;SDS011;65794;51.836;5.002;2023-05-07T02:23:51;17.17;;;10.27;;
48765;SDS011;65794;51.836;5.002;2023-05-07T02:26:18;16.92;;;10.88;;
48765;SDS011;65794;51.836;5.002;2023-05-07T02:28:49;15.48;;;9.10;;
48765;SDS011;65794;51.836;5.002;2023-05-07T02:31:21;15.30;;;10.35;;
48765;SDS011;65794;51.836;5.002;2023-05-07T02:34:00;20.35;;;11.32;;
48765;SDS011;65794;51.836;5.002;2023-05-07T02:36:27;18.95;;;11.45;;
48765;SDS011;65794;51.836;5.002;2023-05-07T02:39:00;15.60;;;10.85;;
48765;SDS011;65794;51.836;5.002;2023-05-07T02:41:27;18.38;;;11.68;;
48765;SDS011;65794;51.836;5.002;2023-05-07T02:43:54;16.70;;;9.85;;
48765;SDS011;65794;51.836;5.002;2023-05-07T02:46:31;16.90;;;11.00;;
48765;SDS011;65794;51.836;5.002;2023-05-07T02:49:03;19.67;;;12.43;;
48765;SDS011;65794;51.836;5.002;2023-05-07T02:51:30;20.70;;;11.65;;
48765;SDS011;65794;51.836;5.002;2023-05-07T02:54:00;22.88;;;12.35;;
48765;SDS011;65794;51.836;5.002;2023-05-07T02:56:28;20.77;;;12.65;;
48765;SDS011;65794;51.836;5.002;2023-05-07T02:58:55;19.98;;;12.85;;
48765;SDS011;65794;51.836;5.002;2023-05-07T03:01:32;19.40;;;11.90;;
48765;SDS011;65794;51.836;5.002;2023-05-07T03:04:04;19.38;;;12.80;;
48765;SDS011;65794;51.836;5.002;2023-05-07T03:06:31;22.52;;;12.57;;
48765;SDS011;65794;51.836;5.002;2023-05-07T03:08:58;20.45;;;12.48;;
48765;SDS011;65794;51.836;5.002;2023-05-07T03:11:25;17.73;;;10.77;;
48765;SDS011;65794;51.836;5.002;2023-05-07T03:13:52;23.83;;;12.98;;
48765;SDS011;65794;51.836;5.002;2023-05-07T03:16:31;19.77;;;12.15;;
48765;SDS011;65794;51.836;5.002;2023-05-07T03:18:58;22.75;;;13.65;;
48765;SDS011;65794;51.836;5.002;2023-05-07T03:21:25;25.30;;;13.38;;
48765;SDS011;65794;51.836;5.002;2023-05-07T03:23:53;25.00;;;14.13;;
48765;SDS011;65794;51.836;5.002;2023-05-07T03:26:20;26.25;;;13.65;;
48765;SDS011;65794;51.836;5.002;2023-05-07T03:28:48;22.33;;;13.70;;
48765;SDS011;65794;51.836;5.002;2023-05-07T03:31:38;29.27;;;15.07;;
48765;SDS011;65794;51.836;5.002;2023-05-07T03:34:04;24.55;;;14.25;;
48765;SDS011;65794;51.836;5.002;2023-05-07T03:36:31;28.30;;;15.48;;
48765;SDS011;65794;51.836;5.002;2023-05-07T03:38:58;26.13;;;15.73;;
48765;SDS011;65794;51.836;5.002;2023-05-07T03:41:34;25.30;;;16.10;;
48765;SDS011;65794;51.836;5.002;2023-05-07T03:44:01;23.67;;;15.23;;
48765;SDS011;65794;51.836;5.002;2023-05-07T03:46:29;25.02;;;15.48;;
48765;SDS011;65794;51.836;5.002;2023-05-07T03:48:56;22.70;;;14.90;;
48765;SDS011;65794;51.836;5.002;2023-05-07T03:51:23;21.10;;;14.15;;
48765;SDS011;65794;51.836;5.002;2023-05-07T03:53:50;27.52;;;17.33;;
48765;SDS011;65794;51.836;5.002;2023-05-07T03:56:21;26.30;;;17.00;;
48765;SDS011;65794;51.836;5.002;2023-05-07T03:58:53;25.90;;;16.95;;
48765;SDS011;65794;51.836;5.002;2023-05-07T04:01:21;30.80;;;17.92;;
48765;SDS011;65794;51.836;5.002;2023-05-07T04:03:51;21.05;;;13.55;;
48765;SDS011;65794;51.836;5.002;2023-05-07T04:06:19;24.65;;;16.33;;
48765;SDS011;65794;51.836;5.002;2023-05-07T04:08:48;26.50;;;17.45;;
48765;SDS011;65794;51.836;5.002;2023-05-07T04:11:18;27.42;;;17.75;;
48765;SDS011;65794;51.836;5.002;2023-05-07T04:13:47;26.10;;;17.23;;
48765;SDS011;65794;51.836;5.002;2023-05-07T04:16:18;24.75;;;16.30;;
48765;SDS011;65794;51.836;5.002;2023-05-07T04:18:48;25.85;;;17.73;;
48765;SDS011;65794;51.836;5.002;2023-05-07T04:21:17;26.83;;;17.52;;
48765;SDS011;65794;51.836;5.002;2023-05-07T04:23:56;29.40;;;18.00;;
48765;SDS011;65794;51.836;5.002;2023-05-07T04:26:24;29.10;;;19.38;;
48765;SDS011;65794;51.836;5.002;2023-05-07T04:28:51;26.15;;;17.83;;
48765;SDS011;65794;51.836;5.002;2023-05-07T04:31:18;26.55;;;18.08;;
48765;SDS011;65794;51.836;5.002;2023-05-07T04:33:53;33.92;;;19.17;;
48765;SDS011;65794;51.836;5.002;2023-05-07T04:36:21;30.63;;;17.67;;
48765;SDS011;65794;51.836;5.002;2023-05-07T04:38:56;31.25;;;19.33;;
48765;SDS011;65794;51.836;5.002;2023-05-07T04:41:23;27.90;;;18.58;;
48765;SDS011;65794;51.836;5.002;2023-05-07T04:43:52;27.08;;;17.75;;
48765;SDS011;65794;51.836;5.002;2023-05-07T04:46:22;27.65;;;18.63;;
48765;SDS011;65794;51.836;5.002;2023-05-07T04:49:01;31.42;;;18.90;;
48765;SDS011;65794;51.836;5.002;2023-05-07T04:51:29;28.63;;;18.52;;
48765;SDS011;65794;51.836;5.002;2023-05-07T04:53:56;32.70;;;18.90;;
48765;SDS011;65794;51.836;5.002;2023-05-07T04:56:23;32.72;;;18.85;;
48765;SDS011;65794;51.836;5.002;2023-05-07T04:58:51;29.60;;;17.30;;
48765;SDS011;65794;51.836;5.002;2023-05-07T05:01:20;29.33;;;18.95;;
48765;SDS011;65794;51.836;5.002;2023-05-07T05:03:57;29.80;;;18.90;;
48765;SDS011;65794;51.836;5.002;2023-05-07T05:06:27;32.67;;;19.48;;
48765;SDS011;65794;51.836;5.002;2023-05-07T05:08:54;36.03;;;21.17;;
48765;SDS011;65794;51.836;5.002;2023-05-07T05:11:22;34.83;;;20.92;;
48765;SDS011;65794;51.836;5.002;2023-05-07T05:13:49;34.38;;;20.92;;
48765;SDS011;65794;51.836;5.002;2023-05-07T05:18:57;35.58;;;21.80;;
48765;SDS011;65794;51.836;5.002;2023-05-07T05:21:27;35.42;;;21.15;;
48765;SDS011;65794;51.836;5.002;2023-05-07T05:23:59;31.48;;;20.92;;
48765;SDS011;65794;51.836;5.002;2023-05-07T05:26:27;34.47;;;20.75;;
48765;SDS011;65794;51.836;5.002;2023-05-07T05:28:54;32.83;;;21.35;;
48765;SDS011;65794;51.836;5.002;2023-05-07T05:31:27;34.60;;;22.30;;
48765;SDS011;65794;51.836;5.002;2023-05-07T05:33:55;33.33;;;22.38;;
48765;SDS011;65794;51.836;5.002;2023-05-07T05:36:22;39.35;;;25.02;;
48765;SDS011;65794;51.836;5.002;2023-05-07T05:38:52;33.75;;;23.02;;
48765;SDS011;65794;51.836;5.002;2023-05-07T05:41:21;35.65;;;22.38;;
48765;SDS011;65794;51.836;5.002;2023-05-07T05:43:50;37.70;;;23.83;;
48765;SDS011;65794;51.836;5.002;2023-05-07T05:46:33;40.17;;;25.08;;
48765;SDS011;65794;51.836;5.002;2023-05-07T05:49:02;41.42;;;22.83;;
48765;SDS011;65794;51.836;5.002;2023-05-07T05:51:30;39.63;;;24.42;;
48765;SDS011;65794;51.836;5.002;2023-05-07T05:53:57;43.10;;;24.90;;
48765;SDS011;65794;51.836;5.002;2023-05-07T05:56:24;40.42;;;24.58;;
48765;SDS011;65794;51.836;5.002;2023-05-07T05:58:51;37.88;;;25.02;;
48765;SDS011;65794;51.836;5.002;2023-05-07T06:04:18;43.10;;;25.70;;
48765;SDS011;65794;51.836;5.002;2023-05-07T06:06:45;42.72;;;25.83;;
48765;SDS011;65794;51.836;5.002;2023-05-07T06:09:12;40.13;;;25.45;;
48765;SDS011;65794;51.836;5.002;2023-05-07T06:11:42;39.22;;;25.92;;
48765;SDS011;65794;51.836;5.002;2023-05-07T06:14:10;42.80;;;25.77;;
48765;SDS011;65794;51.836;5.002;2023-05-07T06:16:37;40.13;;;24.42;;
48765;SDS011;65794;51.836;5.002;2023-05-07T06:19:06;38.08;;;26.20;;
48765;SDS011;65794;51.836;5.002;2023-05-07T06:21:33;42.60;;;26.88;;
48765;SDS011;65794;51.836;5.002;2023-05-07T06:24:00;41.97;;;26.88;;
48765;SDS011;65794;51.836;5.002;2023-05-07T06:26:27;39.42;;;25.48;;
48765;SDS011;65794;51.836;5.002;2023-05-07T06:28:54;46.45;;;27.05;;
48765;SDS011;65794;51.836;5.002;2023-05-07T06:31:31;47.92;;;29.08;;
48765;SDS011;65794;51.836;5.002;2023-05-07T06:34:02;43.85;;;26.17;;
48765;SDS011;65794;51.836;5.002;2023-05-07T06:36:36;46.38;;;27.65;;
48765;SDS011;65794;51.836;5.002;2023-05-07T06:39:15;44.22;;;28.63;;
48765;SDS011;65794;51.836;5.002;2023-05-07T06:41:42;45.53;;;28.92;;
48765;SDS011;65794;51.836;5.002;2023-05-07T06:44:20;50.10;;;29.30;;
48765;SDS011;65794;51.836;5.002;2023-05-07T06:46:57;49.80;;;30.65;;
48765;SDS011;65794;51.836;5.002;2023-05-07T06:49:24;44.15;;;27.48;;
48765;SDS011;65794;51.836;5.002;2023-05-07T06:51:52;47.53;;;28.75;;
48765;SDS011;65794;51.836;5.002;2023-05-07T06:54:19;45.28;;;28.58;;
48765;SDS011;65794;51.836;5.002;2023-05-07T06:56:47;43.88;;;28.30;;
48765;SDS011;65794;51.836;5.002;2023-05-07T06:59:14;45.88;;;27.70;;
48765;SDS011;65794;51.836;5.002;2023-05-07T07:01:41;40.67;;;26.15;;
48765;SDS011;65794;51.836;5.002;2023-05-07T07:04:10;39.95;;;26.60;;
48765;SDS011;65794;51.836;5.002;2023-05-07T07:06:39;42.80;;;27.85;;
48765;SDS011;65794;51.836;5.002;2023-05-07T07:09:09;42.60;;;27.45;;
48765;SDS011;65794;51.836;5.002;2023-05-07T07:11:37;39.75;;;27.80;;
48765;SDS011;65794;51.836;5.002;2023-05-07T07:14:05;39.35;;;26.27;;
48765;SDS011;65794;51.836;5.002;2023-05-07T07:16:37;44.30;;;27.88;;
48765;SDS011;65794;51.836;5.002;2023-05-07T07:19:04;43.20;;;27.13;;
48765;SDS011;65794;51.836;5.002;2023-05-07T07:21:32;43.97;;;27.08;;
48765;SDS011;65794;51.836;5.002;2023-05-07T07:23:58;42.15;;;26.27;;
48765;SDS011;65794;51.836;5.002;2023-05-07T07:26:26;38.85;;;24.60;;
48765;SDS011;65794;51.836;5.002;2023-05-07T07:28:53;36.85;;;24.20;;
48765;SDS011;65794;51.836;5.002;2023-05-07T07:31:31;40.50;;;24.50;;
48765;SDS011;65794;51.836;5.002;2023-05-07T07:33:58;38.33;;;24.15;;
48765;SDS011;65794;51.836;5.002;2023-05-07T07:36:33;35.38;;;25.33;;
48765;SDS011;65794;51.836;5.002;2023-05-07T07:39:13;38.70;;;24.63;;
48765;SDS011;65794;51.836;5.002;2023-05-07T07:41:42;44.10;;;25.48;;
48765;SDS011;65794;51.836;5.002;2023-05-07T07:44:10;39.10;;;26.02;;
48765;SDS011;65794;51.836;5.002;2023-05-07T07:46:46;37.05;;;25.42;;
48765;SDS011;65794;51.836;5.002;2023-05-07T07:49:15;33.20;;;23.38;;
48765;SDS011;65794;51.836;5.002;2023-05-07T07:51:43;31.80;;;22.45;;
48765;SDS011;65794;51.836;5.002;2023-05-07T07:54:11;34.10;;;24.23;;
48765;SDS011;65794;51.836;5.002;2023-05-07T07:56:39;34.13;;;22.33;;
48765;SDS011;65794;51.836;5.002;2023-05-07T07:59:07;31.63;;;20.95;;
48765;SDS011;65794;51.836;5.002;2023-05-07T08:01:38;37.25;;;23.13;;
48765;SDS011;65794;51.836;5.002;2023-05-07T08:04:06;36.20;;;21.95;;
48765;SDS011;65794;51.836;5.002;2023-05-07T08:06:38;39.78;;;22.85;;
48765;SDS011;65794;51.836;5.002;2023-05-07T08:09:06;34.92;;;22.50;;
48765;SDS011;65794;51.836;5.002;2023-05-07T08:11:36;32.35;;;21.45;;
48765;SDS011;65794;51.836;5.002;2023-05-07T08:14:04;34.60;;;21.52;;
48765;SDS011;65794;51.836;5.002;2023-05-07T08:16:36;31.95;;;22.85;;
48765;SDS011;65794;51.836;5.002;2023-05-07T08:19:03;36.60;;;21.63;;
48765;SDS011;65794;51.836;5.002;2023-05-07T08:21:31;32.10;;;22.17;;
48765;SDS011;65794;51.836;5.002;2023-05-07T08:24:00;33.80;;;21.67;;
48765;SDS011;65794;51.836;5.002;2023-05-07T08:26:28;30.02;;;19.80;;
48765;SDS011;65794;51.836;5.002;2023-05-07T08:28:55;27.85;;;19.70;;
48765;SDS011;65794;51.836;5.002;2023-05-07T08:31:23;25.65;;;18.90;;
48765;SDS011;65794;51.836;5.002;2023-05-07T08:33:57;26.17;;;18.42;;
48765;SDS011;65794;51.836;5.002;2023-05-07T08:36:24;25.88;;;17.38;;
48765;SDS011;65794;51.836;5.002;2023-05-07T08:38:52;25.10;;;17.98;;
48765;SDS011;65794;51.836;5.002;2023-05-07T08:41:20;25.10;;;18.45;;
48765;SDS011;65794;51.836;5.002;2023-05-07T08:43:51;26.27;;;18.48;;
48765;SDS011;65794;51.836;5.002;2023-05-07T08:46:18;24.17;;;16.75;;
48765;SDS011;65794;51.836;5.002;2023-05-07T08:48:58;22.85;;;16.45;;
48765;SDS011;65794;51.836;5.002;2023-05-07T08:51:25;23.27;;;17.25;;
48765;SDS011;65794;51.836;5.002;2023-05-07T08:53:54;23.38;;;15.45;;
48765;SDS011;65794;51.836;5.002;2023-05-07T08:56:25;22.83;;;16.63;;
48765;SDS011;65794;51.836;5.002;2023-05-07T08:58:53;22.73;;;16.23;;
48765;SDS011;65794;51.836;5.002;2023-05-07T09:01:34;22.50;;;15.85;;
48765;SDS011;65794;51.836;5.002;2023-05-07T09:04:03;22.08;;;15.75;;
48765;SDS011;65794;51.836;5.002;2023-05-07T09:06:31;20.48;;;14.73;;
48765;SDS011;65794;51.836;5.002;2023-05-07T09:08:58;20.17;;;14.90;;
48765;SDS011;65794;51.836;5.002;2023-05-07T09:11:29;24.30;;;14.90;;
48765;SDS011;65794;51.836;5.002;2023-05-07T09:13:59;18.67;;;13.95;;
48765;SDS011;65794;51.836;5.002;2023-05-07T09:16:34;18.40;;;13.00;;
48765;SDS011;65794;51.836;5.002;2023-05-07T09:19:02;25.88;;;14.43;;
48765;SDS011;65794;51.836;5.002;2023-05-07T09:21:29;20.10;;;13.35;;
48765;SDS011;65794;51.836;5.002;2023-05-07T09:23:58;20.98;;;13.63;;
48765;SDS011;65794;51.836;5.002;2023-05-07T09:26:33;18.55;;;13.73;;
48765;SDS011;65794;51.836;5.002;2023-05-07T09:29:03;19.05;;;13.70;;
48765;SDS011;65794;51.836;5.002;2023-05-07T09:31:36;19.02;;;13.52;;
48765;SDS011;65794;51.836;5.002;2023-05-07T09:34:04;18.92;;;14.38;;
48765;SDS011;65794;51.836;5.002;2023-05-07T09:36:33;18.83;;;14.52;;
48765;SDS011;65794;51.836;5.002;2023-05-07T09:39:02;17.42;;;13.68;;
48765;SDS011;65794;51.836;5.002;2023-05-07T09:41:30;21.33;;;14.68;;
48765;SDS011;65794;51.836;5.002;2023-05-07T09:44:08;16.58;;;13.93;;
48765;SDS011;65794;51.836;5.002;2023-05-07T09:46:42;17.42;;;13.90;;
48765;SDS011;65794;51.836;5.002;2023-05-07T09:49:21;16.50;;;13.27;;
48765;SDS011;65794;51.836;5.002;2023-05-07T09:51:50;19.15;;;13.15;;
48765;SDS011;65794;51.836;5.002;2023-05-07T09:54:19;20.67;;;13.77;;
48765;SDS011;65794;51.836;5.002;2023-05-07T09:56:48;17.10;;;13.57;;
48765;SDS011;65794;51.836;5.002;2023-05-07T09:59:17;17.02;;;12.60;;
48765;SDS011;65794;51.836;5.002;2023-05-07T10:01:46;16.75;;;11.65;;
48765;SDS011;65794;51.836;5.002;2023-05-07T10:04:13;13.75;;;8.98;;
48765;SDS011;65794;51.836;5.002;2023-05-07T10:06:42;13.25;;;9.52;;
48765;SDS011;65794;51.836;5.002;2023-05-07T10:09:10;13.43;;;9.85;;
48765;SDS011;65794;51.836;5.002;2023-05-07T10:11:38;13.80;;;10.20;;
48765;SDS011;65794;51.836;5.002;2023-05-07T10:14:06;14.05;;;11.10;;
48765;SDS011;65794;51.836;5.002;2023-05-07T10:16:34;13.68;;;9.95;;
48765;SDS011;65794;51.836;5.002;2023-05-07T10:19:09;14.88;;;11.25;;
48765;SDS011;65794;51.836;5.002;2023-05-07T10:21:39;13.15;;;10.82;;
48765;SDS011;65794;51.836;5.002;2023-05-07T10:24:12;11.98;;;9.38;;
48765;SDS011;65794;51.836;5.002;2023-05-07T10:26:42;15.53;;;10.97;;
48765;SDS011;65794;51.836;5.002;2023-05-07T10:34:32;16.33;;;11.23;;
48765;SDS011;65794;51.836;5.002;2023-05-07T10:37:01;15.02;;;9.82;;
48765;SDS011;65794;51.836;5.002;2023-05-07T10:39:29;10.77;;;8.52;;
48765;SDS011;65794;51.836;5.002;2023-05-07T10:41:57;12.00;;;7.60;;
48765;SDS011;65794;51.836;5.002;2023-05-07T10:44:33;11.77;;;8.15;;
48765;SDS011;65794;51.836;5.002;2023-05-07T10:47:06;9.90;;;6.43;;
48765;SDS011;65794;51.836;5.002;2023-05-07T10:50:19;11.82;;;7.75;;
48765;SDS011;65794;51.836;5.002;2023-05-07T10:52:28;13.65;;;9.40;;
48765;SDS011;65794;51.836;5.002;2023-05-07T10:57:55;11.77;;;7.78;;
48765;SDS011;65794;51.836;5.002;2023-05-07T11:05:34;12.15;;;8.07;;
48765;SDS011;65794;51.836;5.002;2023-05-07T11:08:19;12.68;;;8.32;;
48765;SDS011;65794;51.836;5.002;2023-05-07T11:10:53;14.05;;;9.20;;
48765;SDS011;65794;51.836;5.002;2023-05-07T11:13:48;8.85;;;6.60;;
48765;SDS011;65794;51.836;5.002;2023-05-07T11:16:47;9.50;;;6.40;;
48765;SDS011;65794;51.836;5.002;2023-05-07T11:19:47;10.15;;;7.75;;
48765;SDS011;65794;51.836;5.002;2023-05-07T11:22:24;8.55;;;6.70;;
48765;SDS011;65794;51.836;5.002;2023-05-07T11:25:03;9.60;;;6.78;;
48765;SDS011;65794;51.836;5.002;2023-05-07T11:27:31;8.90;;;6.50;;
48765;SDS011;65794;51.836;5.002;2023-05-07T11:29:58;8.68;;;6.78;;
48765;SDS011;65794;51.836;5.002;2023-05-07T11:32:29;6.28;;;5.05;;
48765;SDS011;65794;51.836;5.002;2023-05-07T11:34:58;10.07;;;6.07;;
48765;SDS011;65794;51.836;5.002;2023-05-07T11:37:26;5.57;;;3.90;;
48765;SDS011;65794;51.836;5.002;2023-05-07T11:40:07;4.85;;;2.67;;
48765;SDS011;65794;51.836;5.002;2023-05-07T11:42:35;9.65;;;4.80;;
48765;SDS011;65794;51.836;5.002;2023-05-07T11:45:04;8.00;;;5.28;;
48765;SDS011;65794;51.836;5.002;2023-05-07T11:47:33;9.35;;;5.05;;
48765;SDS011;65794;51.836;5.002;2023-05-07T11:50:05;7.82;;;5.45;;
48765;SDS011;65794;51.836;5.002;2023-05-07T11:52:37;5.28;;;4.15;;
48765;SDS011;65794;51.836;5.002;2023-05-07T11:55:06;11.63;;;4.45;;
48765;SDS011;65794;51.836;5.002;2023-05-07T11:57:33;9.27;;;4.90;;
48765;SDS011;65794;51.836;5.002;2023-05-07T12:00:01;7.47;;;4.80;;
48765;SDS011;65794;51.836;5.002;2023-05-07T12:02:40;9.18;;;3.88;;
48765;SDS011;65794;51.836;5.002;2023-05-07T12:05:09;9.05;;;6.60;;
48765;SDS011;65794;51.836;5.002;2023-05-07T12:07:38;11.18;;;6.90;;
48765;SDS011;65794;51.836;5.002;2023-05-07T12:10:06;11.23;;;5.88;;
48765;SDS011;65794;51.836;5.002;2023-05-07T12:12:40;8.52;;;4.97;;
48765;SDS011;65794;51.836;5.002;2023-05-07T12:15:09;10.88;;;6.88;;
48765;SDS011;65794;51.836;5.002;2023-05-07T12:17:37;14.05;;;9.20;;
48765;SDS011;65794;51.836;5.002;2023-05-07T12:20:04;13.70;;;9.63;;
48765;SDS011;65794;51.836;5.002;2023-05-07T12:22:41;13.52;;;10.10;;
48765;SDS011;65794;51.836;5.002;2023-05-07T12:25:08;15.90;;;10.40;;
48765;SDS011;65794;51.836;5.002;2023-05-07T12:27:36;16.90;;;9.93;;
48765;SDS011;65794;51.836;5.002;2023-05-07T12:30:03;13.00;;;9.10;;
48765;SDS011;65794;51.836;5.002;2023-05-07T12:32:31;15.85;;;9.38;;
48765;SDS011;65794;51.836;5.002;2023-05-07T12:35:03;16.42;;;7.50;;
48765;SDS011;65794;51.836;5.002;2023-05-07T12:37:39;11.18;;;7.45;;
48765;SDS011;65794;51.836;5.002;2023-05-07T12:40:10;15.00;;;8.02;;
48765;SDS011;65794;51.836;5.002;2023-05-07T12:42:39;13.73;;;9.60;;
48765;SDS011;65794;51.836;5.002;2023-05-07T12:45:10;13.32;;;9.02;;
48765;SDS011;65794;51.836;5.002;2023-05-07T12:47:37;13.63;;;9.80;;
48765;SDS011;65794;51.836;5.002;2023-05-07T12:50:05;11.05;;;8.98;;
48765;SDS011;65794;51.836;5.002;2023-05-07T12:52:37;11.95;;;8.27;;
48765;SDS011;65794;51.836;5.002;2023-05-07T12:55:05;11.43;;;8.40;;
48765;SDS011;65794;51.836;5.002;2023-05-07T12:57:39;13.40;;;8.68;;
48765;SDS011;65794;51.836;5.002;2023-05-07T13:00:07;13.48;;;9.40;;
48765;SDS011;65794;51.836;5.002;2023-05-07T13:02:38;13.05;;;8.45;;
48765;SDS011;65794;51.836;5.002;2023-05-07T13:05:06;15.27;;;8.85;;
48765;SDS011;65794;51.836;5.002;2023-05-07T13:07:33;12.82;;;8.23;;
48765;SDS011;65794;51.836;5.002;2023-05-07T13:10:04;10.65;;;7.97;;
48765;SDS011;65794;51.836;5.002;2023-05-07T13:12:32;11.82;;;7.90;;
48765;SDS011;65794;51.836;5.002;2023-05-07T13:14:59;11.30;;;8.30;;
48765;SDS011;65794;51.836;5.002;2023-05-07T13:17:26;12.77;;;7.95;;
48765;SDS011;65794;51.836;5.002;2023-05-07T13:19:53;12.27;;;8.70;;
48765;SDS011;65794;51.836;5.002;2023-05-07T13:22:20;15.30;;;9.32;;
48765;SDS011;65794;51.836;5.002;2023-05-07T13:24:47;14.65;;;10.02;;
48765;SDS011;65794;51.836;5.002;2023-05-07T13:27:15;16.25;;;10.85;;
48765;SDS011;65794;51.836;5.002;2023-05-07T13:29:42;15.38;;;9.85;;
48765;SDS011;65794;51.836;5.002;2023-05-07T13:32:09;19.02;;;9.85;;
48765;SDS011;65794;51.836;5.002;2023-05-07T13:34:36;16.75;;;11.70;;
48765;SDS011;65794;51.836;5.002;2023-05-07T13:37:03;16.27;;;10.63;;
48765;SDS011;65794;51.836;5.002;2023-05-07T13:39:31;17.85;;;10.98;;
48765;SDS011;65794;51.836;5.002;2023-05-07T13:41:59;20.42;;;10.85;;
48765;SDS011;65794;51.836;5.002;2023-05-07T13:44:26;18.05;;;11.50;;
48765;SDS011;65794;51.836;5.002;2023-05-07T13:46:53;19.08;;;11.15;;
48765;SDS011;65794;51.836;5.002;2023-05-07T13:49:20;19.35;;;12.30;;
48765;SDS011;65794;51.836;5.002;2023-05-07T13:51:47;16.23;;;11.35;;
48765;SDS011;65794;51.836;5.002;2023-05-07T13:54:14;16.65;;;10.60;;
48765;SDS011;65794;51.836;5.002;2023-05-07T13:56:43;15.32;;;9.77;;
48765;SDS011;65794;51.836;5.002;2023-05-07T13:59:11;20.85;;;9.38;;
48765;SDS011;65794;51.836;5.002;2023-05-07T14:04:44;13.38;;;6.63;;
48765;SDS011;65794;51.836;5.002;2023-05-07T14:07:11;9.35;;;4.80;;
48765;SDS011;65794;51.836;5.002;2023-05-07T14:09:39;12.90;;;4.55;;
48765;SDS011;65794;51.836;5.002;2023-05-07T14:12:08;8.32;;;4.20;;
48765;SDS011;65794;51.836;5.002;2023-05-07T14:14:35;8.18;;;3.15;;
48765;SDS011;65794;51.836;5.002;2023-05-07T14:17:02;6.63;;;3.80;;
48765;SDS011;65794;51.836;5.002;2023-05-07T14:19:29;9.32;;;4.07;;
48765;SDS011;65794;51.836;5.002;2023-05-07T14:21:59;7.50;;;4.28;;
48765;SDS011;65794;51.836;5.002;2023-05-07T14:24:30;8.52;;;3.80;;
48765;SDS011;65794;51.836;5.002;2023-05-07T14:27:04;8.32;;;3.80;;
48765;SDS011;65794;51.836;5.002;2023-05-07T14:29:32;10.93;;;3.42;;
48765;SDS011;65794;51.836;5.002;2023-05-07T14:32:03;9.07;;;3.47;;
48765;SDS011;65794;51.836;5.002;2023-05-07T14:34:29;8.60;;;3.17;;
48765;SDS011;65794;51.836;5.002;2023-05-07T14:36:58;3.65;;;2.35;;
48765;SDS011;65794;51.836;5.002;2023-05-07T14:39:25;6.85;;;2.72;;
48765;SDS011;65794;51.836;5.002;2023-05-07T14:41:52;7.40;;;2.92;;
48765;SDS011;65794;51.836;5.002;2023-05-07T14:44:21;9.10;;;2.88;;
48765;SDS011;65794;51.836;5.002;2023-05-07T14:46:48;4.25;;;2.75;;
48765;SDS011;65794;51.836;5.002;2023-05-07T14:49:15;7.88;;;3.40;;
48765;SDS011;65794;51.836;5.002;2023-05-07T14:51:45;7.97;;;3.78;;
48765;SDS011;65794;51.836;5.002;2023-05-07T14:54:13;9.95;;;3.90;;
48765;SDS011;65794;51.836;5.002;2023-05-07T14:56:41;7.47;;;3.92;;
48765;SDS011;65794;51.836;5.002;2023-05-07T14:59:08;6.47;;;3.63;;
48765;SDS011;65794;51.836;5.002;2023-05-07T15:01:35;8.05;;;3.55;;
48765;SDS011;65794;51.836;5.002;2023-05-07T15:04:03;5.72;;;3.30;;
48765;SDS011;65794;51.836;5.002;2023-05-07T15:06:31;8.13;;;3.72;;